createdAt,value
2022-07-29T00:03:49.075Z,14.67
2022-07-29T00:08:51.789Z,14.68
2022-07-29T00:13:54.718Z,14.57
2022-07-29T00:19:01.897Z,14.45
2022-07-29T00:24:05.239Z,14.45
2022-07-29T00:29:35.749Z,14.29
2022-07-29T00:34:49.535Z,14.31
2022-07-29T00:39:52.345Z,14.27
2022-07-29T00:44:55.010Z,14.21
2022-07-29T00:49:57.662Z,14.16
2022-07-29T00:55:06.330Z,13.97
2022-07-29T01:00:15.025Z,14.05
2022-07-29T01:05:24.308Z,13.90
2022-07-29T01:10:27.339Z,13.91
2022-07-29T01:15:30.293Z,13.85
2022-07-29T01:20:51.285Z,13.92
2022-07-29T01:26:12.173Z,13.83
2022-07-29T01:31:26.995Z,13.78
2022-07-29T01:36:39.537Z,13.82
2022-07-29T01:41:56.817Z,13.79
2022-07-29T01:47:03.063Z,13.76
2022-07-29T01:52:12.549Z,13.84
2022-07-29T01:57:21.460Z,13.90
2022-07-29T02:02:25.494Z,14.82
2022-07-29T02:07:32.857Z,17.11
2022-07-29T02:12:37.386Z,21.32
2022-07-29T02:18:06.048Z,23.11
2022-07-29T02:23:13.000Z,26.74
2022-07-29T02:28:18.546Z,28.54
2022-07-29T02:33:24.490Z,29.92
2022-07-29T02:38:48.170Z,30.50
2022-07-29T02:43:56.821Z,31.67
2022-07-29T02:49:16.817Z,33.41
2022-07-29T02:54:48.294Z,35.00
2022-07-29T02:59:54.339Z,34.94
2022-07-29T03:04:59.118Z,34.54
2022-07-29T03:10:05.167Z,33.00
2022-07-29T03:15:14.043Z,29.01
2022-07-29T03:20:18.791Z,26.07
2022-07-29T03:25:22.042Z,24.02
2022-07-29T03:30:25.113Z,22.98
2022-07-29T03:35:27.941Z,22.83
2022-07-29T03:40:38.774Z,21.45
2022-07-29T03:45:45.571Z,21.05
2022-07-29T03:50:48.980Z,20.41
2022-07-29T03:55:56.008Z,20.31
2022-07-29T04:00:59.496Z,19.81
2022-07-29T04:06:07.246Z,20.43
2022-07-29T04:11:10.027Z,19.94
2022-07-29T04:16:12.783Z,19.18
2022-07-29T04:21:15.653Z,19.22
2022-07-29T04:26:19.482Z,19.08
2022-07-29T04:31:25.670Z,18.91
2022-07-29T04:36:29.950Z,19.04
2022-07-29T04:41:33.685Z,18.84
2022-07-29T04:46:37.502Z,18.62
2022-07-29T04:51:40.392Z,18.63
2022-07-29T04:56:43.279Z,18.49
2022-07-29T05:01:46.065Z,18.69
2022-07-29T05:06:48.984Z,19.04
2022-07-29T05:11:51.735Z,19.16
2022-07-29T05:16:57.705Z,19.23
2022-07-29T05:22:01.102Z,19.33
2022-07-29T05:27:04.097Z,19.40
2022-07-29T05:32:06.931Z,19.47
2022-07-29T05:37:09.721Z,19.80
2022-07-29T05:42:12.791Z,19.99
2022-07-29T05:47:15.453Z,20.13
2022-07-29T05:52:18.331Z,20.48
2022-07-29T05:57:24.481Z,20.78
2022-07-29T06:02:27.324Z,20.63
2022-07-29T06:07:30.148Z,20.49
2022-07-29T06:12:36.767Z,20.87
2022-07-29T06:17:39.401Z,20.63
2022-07-29T06:23:02.061Z,20.59
2022-07-29T06:28:06.071Z,21.36
2022-07-29T06:33:08.879Z,20.96
2022-07-29T06:38:31.714Z,21.19
2022-07-29T06:43:50.405Z,21.01
2022-07-29T06:48:54.910Z,20.97
2022-07-29T06:54:12.849Z,21.24
2022-07-29T06:59:15.617Z,21.77
2022-07-29T07:04:18.678Z,22.28
2022-07-29T07:09:21.543Z,22.36
2022-07-29T07:14:24.309Z,22.63
2022-07-29T07:19:28.030Z,22.41
2022-07-29T07:24:31.617Z,22.66
2022-07-29T07:29:35.183Z,22.04
2022-07-29T07:34:39.047Z,22.63
2022-07-29T07:39:42.817Z,22.63
2022-07-29T07:45:12.030Z,22.84
2022-07-29T07:50:16.414Z,23.45
2022-07-29T07:55:21.589Z,22.79
2022-07-29T08:00:24.461Z,22.26
2022-07-29T08:05:27.253Z,22.99
2022-07-29T08:10:48.409Z,23.40
2022-07-29T08:16:12.321Z,23.98
2022-07-29T08:21:16.716Z,23.82
2022-07-29T08:26:20.364Z,23.93
2022-07-29T08:31:23.321Z,23.96
2022-07-29T08:36:26.047Z,23.74
2022-07-29T08:41:28.793Z,24.22
2022-07-29T08:46:31.495Z,23.60
2022-07-29T08:51:36.433Z,23.76
2022-07-29T08:56:54.810Z,23.89
2022-07-29T09:02:00.755Z,24.45
2022-07-29T09:07:06.798Z,23.78
2022-07-29T09:12:12.470Z,23.66
2022-07-29T09:17:17.924Z,23.89
2022-07-29T09:22:31.786Z,24.01
2022-07-29T09:27:35.393Z,24.47
2022-07-29T09:33:07.121Z,24.41
2022-07-29T09:38:14.118Z,24.10
2022-07-29T09:43:17.058Z,24.50
2022-07-29T09:48:24.974Z,24.90
2022-07-29T09:53:34.436Z,24.82
2022-07-29T09:58:37.215Z,23.91
2022-07-29T10:03:53.313Z,23.98
2022-07-29T10:08:56.181Z,23.91
2022-07-29T10:13:59.246Z,24.59
2022-07-29T10:19:02.369Z,24.78
2022-07-29T10:24:07.614Z,24.27
2022-07-29T10:29:17.891Z,25.35
2022-07-29T10:34:48.750Z,26.08
2022-07-29T10:40:45.821Z,25.62
2022-07-29T10:45:50.928Z,24.20
2022-07-29T10:51:07.016Z,23.64
2022-07-29T10:56:36.843Z,23.48
2022-07-29T11:01:40.800Z,23.33
2022-07-29T11:07:03.858Z,23.11
2022-07-29T11:12:37.548Z,23.39
2022-07-29T11:18:01.345Z,24.38
2022-07-29T11:23:33.500Z,25.30
2022-07-29T11:29:18.024Z,26.21
2022-07-29T11:34:34.837Z,26.91
2022-07-29T11:39:43.261Z,26.85
2022-07-29T11:45:44.187Z,26.39
2022-07-29T11:50:44.307Z,26.64
2022-07-29T11:55:58.203Z,26.66
2022-07-29T12:01:04.476Z,26.71
2022-07-29T12:06:15.476Z,26.76
2022-07-29T12:11:22.680Z,26.94
2022-07-29T12:16:38.848Z,25.84
2022-07-29T12:21:57.048Z,25.08
2022-07-29T12:27:04.200Z,25.36
2022-07-29T12:32:14.538Z,24.56
2022-07-29T12:37:40.537Z,24.34
2022-07-29T12:43:12.717Z,23.87
2022-07-29T12:48:15.650Z,23.89
2022-07-29T12:53:18.184Z,24.88
2022-07-29T12:58:34.967Z,25.41
2022-07-29T13:04:07.226Z,25.40
2022-07-29T13:09:18.966Z,25.89
2022-07-29T13:14:36.930Z,25.94
2022-07-29T13:19:48.137Z,26.49
2022-07-29T13:24:58.628Z,26.70
2022-07-29T13:30:03.029Z,26.24
2022-07-29T13:35:09.124Z,25.85
2022-07-29T13:40:12.236Z,25.50
2022-07-29T13:45:15.274Z,25.26
2022-07-29T13:50:18.481Z,25.37
2022-07-29T13:55:21.324Z,25.34
2022-07-29T14:00:25.257Z,25.24
2022-07-29T14:05:27.964Z,24.88
2022-07-29T14:10:31.165Z,25.06
2022-07-29T14:15:34.009Z,25.32
2022-07-29T14:20:42.234Z,25.56
2022-07-29T14:25:44.909Z,25.77
2022-07-29T14:30:48.102Z,25.98
2022-07-29T14:35:50.835Z,25.99
2022-07-29T14:40:53.528Z,26.10
2022-07-29T14:46:01.972Z,25.95
2022-07-29T14:51:06.736Z,25.90
2022-07-29T14:56:34.277Z,25.22
2022-07-29T15:01:32.590Z,24.67
2022-07-29T15:06:35.468Z,24.58
2022-07-29T15:11:38.597Z,24.42
2022-07-29T15:16:44.015Z,24.34
2022-07-29T15:21:49.420Z,24.14
2022-07-29T15:26:52.117Z,23.96
2022-07-29T15:31:56.515Z,23.05
2022-07-29T15:36:59.405Z,22.05
2022-07-29T15:42:03.623Z,21.54
2022-07-29T15:47:07.495Z,21.12
2022-07-29T15:52:11.036Z,20.63
2022-07-29T15:57:15.287Z,20.53
2022-07-29T16:02:18.114Z,20.35
2022-07-29T16:07:20.817Z,20.43
2022-07-29T16:12:23.514Z,20.30
2022-07-29T16:17:26.112Z,20.24
2022-07-29T16:22:30.716Z,20.17
2022-07-29T16:27:37.840Z,20.28
2022-07-29T16:32:41.034Z,20.39
2022-07-29T16:37:43.699Z,20.38
2022-07-29T16:42:47.388Z,20.31
2022-07-29T16:47:50.550Z,20.33
2022-07-29T16:52:53.661Z,20.26
2022-07-29T16:57:56.444Z,20.05
2022-07-29T17:03:00.135Z,20.18
2022-07-29T17:08:02.924Z,20.30
2022-07-29T17:13:05.670Z,20.28
2022-07-29T17:18:12.186Z,20.24
2022-07-29T17:23:15.504Z,19.99
2022-07-29T17:28:18.166Z,19.61
2022-07-29T17:33:21.193Z,19.30
2022-07-29T17:38:24.103Z,19.00
2022-07-29T17:43:27.017Z,18.82
2022-07-29T17:48:32.407Z,18.68
2022-07-29T17:53:38.752Z,18.49
2022-07-29T17:58:41.423Z,18.43
2022-07-29T18:03:44.521Z,18.36
2022-07-29T18:08:48.002Z,18.20
2022-07-29T18:13:50.725Z,18.06
2022-07-29T18:18:53.425Z,17.91
2022-07-29T18:23:56.114Z,17.66
2022-07-29T18:28:58.810Z,17.56
2022-07-29T18:34:02.273Z,17.36
2022-07-29T18:39:04.986Z,17.21
2022-07-29T18:44:09.708Z,17.11
2022-07-29T18:49:13.052Z,17.07
2022-07-29T18:54:20.006Z,16.93
2022-07-29T18:59:22.676Z,16.86
2022-07-29T19:04:25.356Z,16.75
2022-07-29T19:09:27.994Z,16.62
2022-07-29T19:14:30.695Z,16.45
2022-07-29T19:19:33.312Z,16.34
2022-07-29T19:24:36.061Z,16.27
2022-07-29T19:29:38.829Z,16.17
2022-07-29T19:34:48.903Z,16.11
2022-07-29T19:39:53.087Z,15.89
2022-07-29T19:44:55.813Z,15.83
2022-07-29T19:50:00.609Z,15.68
2022-07-29T19:55:07.661Z,15.58
2022-07-29T20:00:12.347Z,15.48
2022-07-29T20:05:15.056Z,15.44
2022-07-29T20:10:17.857Z,15.39
2022-07-29T20:15:20.540Z,15.48
2022-07-29T20:20:23.777Z,15.29
2022-07-29T20:25:26.497Z,15.24
2022-07-29T20:30:29.480Z,15.32
2022-07-29T20:35:32.238Z,15.19
2022-07-29T20:40:35.915Z,15.17
2022-07-29T20:45:38.804Z,15.01
2022-07-29T20:50:42.823Z,15.01
2022-07-29T20:55:45.665Z,14.98
2022-07-29T21:00:48.342Z,14.97
2022-07-29T21:05:51.601Z,15.14
2022-07-29T21:10:54.873Z,15.16
2022-07-29T21:16:03.486Z,15.09
2022-07-29T21:21:09.041Z,15.12
2022-07-29T21:26:13.097Z,15.05
2022-07-29T21:31:16.929Z,14.98
2022-07-29T21:36:47.222Z,14.83
2022-07-29T21:41:42.745Z,14.66
2022-07-29T21:46:45.381Z,14.70
2022-07-29T21:51:48.089Z,14.52
2022-07-29T21:56:54.216Z,14.32
2022-07-29T22:02:01.012Z,14.35
2022-07-29T22:07:04.196Z,14.22
2022-07-29T22:12:07.321Z,14.06
2022-07-29T22:17:10.029Z,14.06
2022-07-29T22:22:12.885Z,14.06
2022-07-29T22:27:15.880Z,13.95
2022-07-29T22:32:18.676Z,13.99
2022-07-29T22:37:21.365Z,13.73
2022-07-29T22:42:24.040Z,13.84
2022-07-29T22:47:39.814Z,13.87
2022-07-29T22:52:49.569Z,13.88
2022-07-29T22:57:52.749Z,13.86
2022-07-29T23:02:55.874Z,13.72
2022-07-29T23:07:58.512Z,13.75
2022-07-29T23:13:01.181Z,13.68
2022-07-29T23:18:03.977Z,13.60
2022-07-29T23:23:06.648Z,13.58
2022-07-29T23:28:11.656Z,13.47
2022-07-29T23:33:16.238Z,13.33
2022-07-29T23:38:18.909Z,13.26
2022-07-29T23:43:21.622Z,13.19
2022-07-29T23:48:24.299Z,13.06
2022-07-29T23:53:27.932Z,13.01
2022-07-29T23:58:31.693Z,12.94
